createdAt,value
2023-05-11T00:01:26.830Z,75452.38
2023-05-11T00:03:56.269Z,75454.41
2023-05-11T00:06:24.556Z,75456.44
2023-05-11T00:08:52.405Z,75458.50
2023-05-11T00:11:20.187Z,75456.44
2023-05-11T00:13:47.923Z,75458.50
2023-05-11T00:16:15.819Z,75456.44
2023-05-11T00:18:43.759Z,75454.41
2023-05-11T00:21:12.928Z,75458.50
2023-05-11T00:23:40.866Z,75462.56
2023-05-11T00:26:08.652Z,75462.56
2023-05-11T00:28:36.483Z,75460.53
2023-05-11T00:31:04.249Z,75458.50
2023-05-11T00:33:32.073Z,75462.56
2023-05-11T00:35:59.779Z,75462.56
2023-05-11T00:38:28.906Z,75462.56
2023-05-11T00:40:56.888Z,75462.56
2023-05-11T00:43:24.622Z,75460.53
2023-05-11T00:45:53.474Z,75462.56
2023-05-11T00:48:21.646Z,75470.72
2023-05-11T00:50:49.908Z,75462.56
2023-05-11T00:53:17.794Z,75458.50
2023-05-11T00:55:47.022Z,75460.53
2023-05-11T00:58:16.032Z,75462.56
2023-05-11T01:00:44.501Z,75466.63
2023-05-11T01:03:14.882Z,75462.56
2023-05-11T01:05:49.362Z,75466.63
2023-05-11T01:08:23.461Z,75468.69
2023-05-11T01:11:03.596Z,75474.78
2023-05-11T01:13:34.730Z,75472.75
2023-05-11T01:16:06.668Z,75470.72
2023-05-11T01:18:39.637Z,75474.78
2023-05-11T01:21:09.312Z,75470.72
2023-05-11T01:24:01.120Z,75482.94
2023-05-11T01:26:46.451Z,75482.94
2023-05-11T01:29:38.787Z,75485.00
2023-05-11T01:32:15.534Z,75482.94
2023-05-11T01:34:46.260Z,75487.03
2023-05-11T01:37:17.432Z,75482.94
2023-05-11T01:39:51.919Z,75480.91
2023-05-11T01:42:22.829Z,75482.94
2023-05-11T01:44:54.500Z,75482.94
2023-05-11T01:47:26.375Z,75482.94
2023-05-11T01:49:55.803Z,75482.94
2023-05-11T01:52:27.138Z,75480.91
2023-05-11T01:54:56.958Z,75482.94
2023-05-11T01:57:25.509Z,75480.91
2023-05-11T01:59:54.849Z,75482.94
2023-05-11T02:02:25.235Z,75480.91
2023-05-11T02:04:54.562Z,75476.84
2023-05-11T02:07:23.750Z,75472.75
2023-05-11T02:09:52.482Z,75470.72
2023-05-11T02:12:21.728Z,75478.88
2023-05-11T02:14:51.245Z,75470.72
2023-05-11T02:17:22.604Z,75472.75
2023-05-11T02:19:52.853Z,75472.75
2023-05-11T02:22:21.721Z,75470.72
2023-05-11T02:24:50.878Z,75464.59
2023-05-11T02:27:18.740Z,75458.50
2023-05-11T02:29:46.626Z,75458.50
2023-05-11T02:32:21.146Z,75458.50
2023-05-11T02:34:55.655Z,75454.41
2023-05-11T02:37:26.551Z,75446.25
2023-05-11T02:40:00.711Z,75448.28
2023-05-11T02:42:31.468Z,75446.25
2023-05-11T02:45:03.382Z,75450.34
2023-05-11T02:47:34.516Z,75446.25
2023-05-11T02:50:05.866Z,75446.25
2023-05-11T02:52:34.204Z,75442.19
2023-05-11T02:55:04.356Z,75446.25
2023-05-11T02:57:32.500Z,75454.41
2023-05-11T03:00:01.906Z,75458.50
2023-05-11T03:02:29.810Z,75462.56
2023-05-11T03:04:57.619Z,75466.63
2023-05-11T03:07:27.067Z,75474.78
2023-05-11T03:09:55.007Z,75487.03
2023-05-11T03:12:23.058Z,75495.19
2023-05-11T03:14:51.612Z,75507.41
2023-05-11T03:17:21.950Z,75511.47
2023-05-11T03:19:50.901Z,75515.56
2023-05-11T03:22:19.160Z,75521.69
2023-05-11T03:24:49.071Z,75517.59
2023-05-11T03:27:18.146Z,75521.69
2023-05-11T03:29:46.885Z,75523.72
2023-05-11T03:32:15.282Z,75523.72
2023-05-11T03:34:43.200Z,75527.78
2023-05-11T03:37:13.534Z,75529.84
2023-05-11T03:39:44.027Z,75525.75
2023-05-11T03:42:15.134Z,75531.88
2023-05-11T03:44:45.192Z,75529.84
2023-05-11T03:47:14.881Z,75527.78
2023-05-11T03:49:43.937Z,75531.88
2023-05-11T03:52:12.471Z,75533.91
2023-05-11T03:54:40.415Z,75531.88
2023-05-11T03:57:10.033Z,75533.91
2023-05-11T03:59:40.448Z,75537.97
2023-05-11T04:02:08.589Z,75546.13
2023-05-11T04:04:36.622Z,75552.25
2023-05-11T04:07:04.568Z,75550.22
2023-05-11T04:09:32.366Z,75548.19
2023-05-11T04:12:00.154Z,75548.19
2023-05-11T04:14:28.154Z,75550.22
2023-05-11T04:16:57.277Z,75548.19
2023-05-11T04:19:25.023Z,75537.97
2023-05-11T04:21:52.743Z,75540.03
2023-05-11T04:24:20.716Z,75531.88
2023-05-11T04:26:48.438Z,75544.09
2023-05-11T04:29:16.204Z,75542.06
2023-05-11T04:31:44.041Z,75544.09
2023-05-11T04:34:13.249Z,75542.06
2023-05-11T04:36:42.096Z,75542.06
2023-05-11T04:39:10.022Z,75544.09
2023-05-11T04:41:37.769Z,75542.06
2023-05-11T04:44:06.140Z,75540.03
2023-05-11T04:46:33.962Z,75537.97
2023-05-11T04:49:01.959Z,75540.03
2023-05-11T04:51:31.062Z,75546.13
2023-05-11T04:53:58.911Z,75540.03
2023-05-11T04:56:26.798Z,75544.09
2023-05-11T04:58:54.562Z,75544.09
2023-05-11T05:01:22.346Z,75537.97
2023-05-11T05:03:50.811Z,75535.94
2023-05-11T05:06:18.670Z,75529.84
2023-05-11T05:08:47.808Z,75527.78
2023-05-11T05:11:15.696Z,75523.72
2023-05-11T05:13:43.428Z,75527.78
2023-05-11T05:16:11.465Z,75523.72
2023-05-11T05:18:39.339Z,75523.72
2023-05-11T05:21:07.242Z,75525.75
2023-05-11T05:23:35.034Z,75525.75
2023-05-11T05:26:04.161Z,75523.72
2023-05-11T05:28:31.887Z,75519.63
2023-05-11T05:30:59.711Z,75521.69
2023-05-11T05:33:27.521Z,75513.53
2023-05-11T05:35:55.342Z,75517.59
2023-05-11T05:38:23.156Z,75515.56
2023-05-11T05:40:50.954Z,75511.47
2023-05-11T05:43:20.024Z,75507.41
2023-05-11T05:45:47.789Z,75513.53
2023-05-11T05:48:15.547Z,75507.41
2023-05-11T05:50:43.314Z,75507.41
2023-05-11T05:53:11.197Z,75505.38
2023-05-11T05:55:38.950Z,75507.41
2023-05-11T05:58:06.703Z,75503.34
2023-05-11T06:00:36.081Z,75505.38
2023-05-11T06:03:04.037Z,75511.47
2023-05-11T06:05:31.851Z,75499.25
2023-05-11T06:08:09.963Z,75499.25
2023-05-11T06:10:38.937Z,75495.19
2023-05-11T06:13:09.916Z,75501.28
2023-05-11T06:15:41.056Z,75491.09
2023-05-11T06:18:11.115Z,75501.28
2023-05-11T06:20:38.922Z,75499.25
2023-05-11T06:23:06.695Z,75503.34
2023-05-11T06:25:35.820Z,75491.09
2023-05-11T06:28:03.628Z,75482.94
2023-05-11T06:30:31.449Z,75478.88
2023-05-11T06:33:00.641Z,75468.69
2023-05-11T06:35:30.305Z,75456.44
2023-05-11T06:37:58.074Z,75448.28
2023-05-11T06:40:26.376Z,75434.03
2023-05-11T06:42:54.133Z,75417.72
2023-05-11T06:45:21.938Z,75407.53
2023-05-11T06:47:49.746Z,75409.56
2023-05-11T06:50:21.104Z,75405.50
2023-05-11T06:52:49.156Z,75405.50
2023-05-11T06:55:16.985Z,75393.25
2023-05-11T06:57:44.714Z,75383.06
2023-05-11T07:00:13.258Z,75385.09
2023-05-11T07:02:41.166Z,75381.03
2023-05-11T07:05:09.477Z,75364.72
2023-05-11T07:07:38.667Z,75360.66
2023-05-11T07:10:07.724Z,75352.50
2023-05-11T07:16:05.807Z,75336.19
2023-05-11T07:18:33.664Z,75313.75
2023-05-11T07:21:01.522Z,75291.34
2023-05-11T07:23:30.656Z,75287.25
2023-05-11T07:25:58.369Z,75260.75
2023-05-11T07:28:26.454Z,75238.34
2023-05-11T07:30:54.236Z,75209.81
2023-05-11T07:33:21.994Z,75201.66
2023-05-11T07:35:49.845Z,75181.28
2023-05-11T07:38:18.364Z,75177.19
2023-05-11T07:40:47.621Z,75164.97
2023-05-11T07:43:15.714Z,75148.66
2023-05-11T07:45:43.860Z,75134.41
2023-05-11T07:48:11.659Z,75144.59
2023-05-11T07:50:39.949Z,75132.34
2023-05-11T07:53:08.590Z,75103.81
2023-05-11T07:55:36.520Z,75114.00
2023-05-11T07:58:05.709Z,75114.00
2023-05-11T08:00:33.489Z,75099.75
2023-05-11T08:03:01.364Z,75091.59
2023-05-11T08:05:29.497Z,75083.44
2023-05-11T08:07:57.325Z,75058.97
2023-05-11T08:10:25.070Z,75042.69
2023-05-11T08:12:52.915Z,75038.59
2023-05-11T08:15:22.235Z,75008.03
2023-05-11T08:17:50.246Z,75018.22
2023-05-11T08:20:18.354Z,74950.97
2023-05-11T08:22:47.027Z,74975.41
2023-05-11T08:25:15.206Z,74957.06
2023-05-11T08:27:43.503Z,74914.28
2023-05-11T08:30:13.345Z,74957.06
2023-05-11T08:32:57.208Z,74938.72
2023-05-11T08:35:26.236Z,74953.00
2023-05-11T08:37:53.995Z,74953.00
2023-05-11T08:40:22.865Z,74912.22
2023-05-11T08:42:54.672Z,74851.09
2023-05-11T08:45:23.637Z,74822.56
2023-05-11T08:47:54.122Z,74806.25
2023-05-11T08:50:23.718Z,74834.78
2023-05-11T08:52:51.618Z,74828.69
2023-05-11T08:55:19.575Z,74834.78
2023-05-11T08:57:48.209Z,74840.91
2023-05-11T09:00:17.531Z,74822.56
2023-05-11T09:02:45.796Z,74806.25
2023-05-11T09:05:16.163Z,74769.56
2023-05-11T09:07:47.587Z,74798.09
2023-05-11T09:10:15.918Z,74798.09
2023-05-11T09:12:43.782Z,74781.81
2023-05-11T09:15:12.928Z,74789.94
2023-05-11T09:17:42.032Z,74761.41
2023-05-11T09:20:15.224Z,74706.41
2023-05-11T09:22:47.265Z,74724.75
2023-05-11T09:25:18.093Z,74728.81
2023-05-11T09:27:48.656Z,74785.88
2023-05-11T09:30:23.286Z,74785.88
2023-05-11T09:32:53.322Z,74771.59
2023-05-11T09:35:26.751Z,74777.72
2023-05-11T09:37:59.499Z,74798.09
2023-05-11T09:40:33.289Z,74773.66
2023-05-11T09:43:02.324Z,74761.41
2023-05-11T09:45:41.601Z,74783.84
2023-05-11T09:48:26.092Z,74798.09
2023-05-11T09:51:01.144Z,74855.16
2023-05-11T09:53:36.625Z,74857.22
2023-05-11T09:56:05.783Z,74853.13
2023-05-11T09:58:48.316Z,74879.63
2023-05-11T10:01:17.297Z,74881.66
2023-05-11T10:03:49.885Z,74908.16
2023-05-11T10:06:20.369Z,74900.00
2023-05-11T10:08:48.980Z,74930.56
2023-05-11T10:11:17.266Z,74932.63
2023-05-11T10:13:46.805Z,74944.84
2023-05-11T10:16:17.118Z,74948.91
2023-05-11T10:18:47.093Z,74955.03
2023-05-11T10:21:16.637Z,74944.84
2023-05-11T10:23:46.191Z,74957.06
2023-05-11T10:26:14.556Z,74961.16
2023-05-11T10:28:44.339Z,74961.16
2023-05-11T10:31:14.373Z,74957.06
2023-05-11T10:33:43.873Z,74957.06
2023-05-11T10:36:19.460Z,74944.84
2023-05-11T10:38:49.055Z,74963.19
2023-05-11T10:41:29.442Z,74969.31
2023-05-11T10:44:19.248Z,74979.50
2023-05-11T10:47:02.856Z,74993.75
2023-05-11T10:50:00.921Z,75006.00
2023-05-11T10:52:47.347Z,75010.06
2023-05-11T10:55:23.526Z,74995.81
2023-05-11T10:58:06.821Z,75006.00
2023-05-11T11:01:12.477Z,75008.03
2023-05-11T11:03:41.567Z,75010.06
2023-05-11T11:06:23.560Z,75012.09
2023-05-11T11:08:59.129Z,75024.34
2023-05-11T11:11:33.581Z,75026.38
2023-05-11T11:14:02.940Z,75038.59
2023-05-11T11:16:31.433Z,75040.63
2023-05-11T11:19:36.761Z,75054.91
2023-05-11T11:22:06.614Z,75046.75
2023-05-11T11:24:44.817Z,75061.03
2023-05-11T11:27:16.622Z,75073.25
2023-05-11T11:30:19.261Z,75081.41
2023-05-11T11:32:48.085Z,75071.22
2023-05-11T11:35:47.198Z,75083.44
2023-05-11T11:38:16.707Z,75087.50
2023-05-11T11:43:19.685Z,75081.41
2023-05-11T11:45:56.395Z,75075.28
2023-05-11T11:48:31.110Z,75071.22
2023-05-11T11:51:06.819Z,75063.06
2023-05-11T11:54:05.647Z,75063.06
2023-05-11T11:56:44.977Z,75048.78
2023-05-11T11:59:15.072Z,75030.44
2023-05-11T12:01:46.493Z,75040.63
2023-05-11T12:04:48.282Z,75038.59
2023-05-11T12:07:17.007Z,75034.53
2023-05-11T12:09:47.143Z,75026.38
2023-05-11T12:12:18.360Z,75014.13
2023-05-11T12:14:49.258Z,75006.00
2023-05-11T12:17:28.212Z,74983.56
2023-05-11T12:19:57.097Z,74975.41
2023-05-11T12:22:25.715Z,74973.38
2023-05-11T12:24:59.539Z,74965.22
2023-05-11T12:27:28.176Z,74961.16
2023-05-11T12:29:57.274Z,74948.91
2023-05-11T12:32:31.310Z,74944.84
2023-05-11T12:35:01.151Z,74942.81
2023-05-11T12:37:29.791Z,74944.84
2023-05-11T12:39:58.584Z,74961.16
2023-05-11T12:42:26.721Z,74946.88
2023-05-11T12:44:55.360Z,74940.78
2023-05-11T12:47:23.185Z,74965.22
2023-05-11T12:49:52.532Z,74973.38
2023-05-11T12:52:20.296Z,74979.50
2023-05-11T12:54:51.640Z,74977.47
2023-05-11T12:57:27.362Z,74993.75
2023-05-11T13:00:12.428Z,74991.72
2023-05-11T13:02:50.007Z,74985.59
2023-05-11T13:05:23.959Z,74983.56
2023-05-11T13:07:58.821Z,74977.47
2023-05-11T13:10:26.816Z,74975.41
2023-05-11T13:12:54.975Z,74985.59
2023-05-11T13:15:25.150Z,74969.31
2023-05-11T13:17:58.135Z,74969.31
2023-05-11T13:20:29.399Z,74953.00
2023-05-11T13:23:05.371Z,74965.22
2023-05-11T13:25:35.330Z,74957.06
2023-05-11T13:28:04.022Z,74957.06
2023-05-11T13:30:34.102Z,74950.97
2023-05-11T13:33:02.924Z,74963.19
2023-05-11T13:35:32.150Z,74977.47
2023-05-11T13:38:00.151Z,74946.88
2023-05-11T13:40:27.981Z,74957.06
2023-05-11T13:42:56.799Z,74973.38
2023-05-11T13:45:24.625Z,74981.53
2023-05-11T13:47:52.484Z,74993.75
2023-05-11T13:50:20.241Z,75014.13
2023-05-11T13:52:49.361Z,75001.91
2023-05-11T13:55:17.669Z,75006.00
2023-05-11T13:57:45.925Z,74995.81
2023-05-11T14:00:15.142Z,75018.22
2023-05-11T14:02:43.107Z,75030.44
2023-05-11T14:05:10.942Z,75046.75
2023-05-11T14:07:46.330Z,75030.44
2023-05-11T14:10:17.601Z,75036.56
2023-05-11T14:12:46.387Z,75042.69
2023-05-11T14:15:14.482Z,75032.47
2023-05-11T14:17:43.155Z,75050.81
2023-05-11T14:20:12.230Z,75058.97
2023-05-11T14:22:40.606Z,75058.97
2023-05-11T14:25:09.406Z,75067.13
2023-05-11T14:27:38.549Z,75071.22
2023-05-11T14:30:07.877Z,75075.28
2023-05-11T14:32:35.730Z,75075.28
2023-05-11T14:35:03.521Z,75075.28
2023-05-11T14:37:31.345Z,75079.38
2023-05-11T14:39:59.833Z,75079.38
2023-05-11T14:42:29.466Z,75087.50
2023-05-11T14:44:58.599Z,75083.44
2023-05-11T14:47:26.557Z,75085.47
2023-05-11T14:49:54.356Z,75091.59
2023-05-11T14:52:22.161Z,75091.59
2023-05-11T14:54:49.964Z,75095.66
2023-05-11T14:57:17.720Z,75103.81
2023-05-11T14:59:58.272Z,75116.06
2023-05-11T15:02:30.078Z,75116.06
2023-05-11T15:04:58.014Z,75124.19
2023-05-11T15:07:25.988Z,75130.31
2023-05-11T15:09:54.387Z,75128.28
2023-05-11T15:12:22.255Z,75128.28
2023-05-11T15:14:49.979Z,75126.25
2023-05-11T15:17:17.886Z,75126.25
2023-05-11T15:19:47.035Z,75134.41
2023-05-11T15:22:14.825Z,75128.28
2023-05-11T15:24:42.554Z,75136.44
2023-05-11T15:27:10.464Z,75132.34
2023-05-11T15:29:38.310Z,75144.59
2023-05-11T15:32:06.934Z,75148.66
2023-05-11T15:34:37.533Z,75148.66
2023-05-11T15:37:13.643Z,75152.75
2023-05-11T15:39:41.415Z,75162.94
2023-05-11T15:42:09.409Z,75156.81
2023-05-11T15:44:37.189Z,75160.88
2023-05-11T15:47:06.121Z,75162.94
2023-05-11T15:49:33.909Z,75164.97
2023-05-11T15:52:01.733Z,75164.97
2023-05-11T15:54:30.864Z,75169.03
2023-05-11T15:56:58.732Z,75169.03
2023-05-11T15:59:26.716Z,75175.16
2023-05-11T16:01:54.809Z,75177.19
2023-05-11T16:04:22.555Z,75181.28
2023-05-11T16:06:50.352Z,75183.31
2023-05-11T16:09:18.291Z,75189.44
2023-05-11T16:11:47.471Z,75199.63
2023-05-11T16:14:15.265Z,75207.78
2023-05-11T16:16:43.327Z,75209.81
2023-05-11T16:19:11.197Z,75217.97
2023-05-11T16:21:39.328Z,75228.16
2023-05-11T16:24:07.983Z,75230.19
2023-05-11T16:26:35.964Z,75242.41
2023-05-11T16:29:05.936Z,75250.56
2023-05-11T16:31:34.036Z,75258.72
2023-05-11T16:34:01.822Z,75262.81
2023-05-11T16:36:30.252Z,75264.84
2023-05-11T16:38:58.161Z,75266.88
2023-05-11T16:41:28.496Z,75268.91
2023-05-11T16:43:56.299Z,75279.09
2023-05-11T16:46:25.850Z,75289.31
2023-05-11T16:48:53.580Z,75295.41
2023-05-11T16:51:21.397Z,75307.66
2023-05-11T16:53:49.138Z,75323.94
2023-05-11T16:56:16.858Z,75323.94
2023-05-11T16:58:44.703Z,75323.94
2023-05-11T17:01:12.560Z,75332.09
2023-05-11T17:03:42.010Z,75334.16
2023-05-11T17:06:13.557Z,75338.22
2023-05-11T17:08:41.828Z,75348.41
2023-05-11T17:11:09.664Z,75352.50
2023-05-11T17:13:37.507Z,75352.50
2023-05-11T17:16:05.955Z,75360.66
2023-05-11T17:18:33.730Z,75346.38
2023-05-11T17:21:02.943Z,75352.50
2023-05-11T17:23:31.440Z,75348.41
2023-05-11T17:25:59.323Z,75360.66
2023-05-11T17:28:27.230Z,75360.66
2023-05-11T17:30:55.305Z,75360.66
2023-05-11T17:33:23.591Z,75364.72
2023-05-11T17:35:51.543Z,75370.84
2023-05-11T17:38:20.710Z,75372.88
2023-05-11T17:40:48.749Z,75372.88
2023-05-11T17:43:16.845Z,75376.94
2023-05-11T17:45:44.594Z,75370.84
2023-05-11T17:48:12.872Z,75374.91
2023-05-11T17:50:40.781Z,75372.88
2023-05-11T17:53:08.627Z,75376.94
2023-05-11T17:55:40.151Z,75374.91
2023-05-11T17:58:07.996Z,75385.09
2023-05-11T18:00:35.850Z,75397.34
2023-05-11T18:03:04.729Z,75409.56
2023-05-11T18:05:44.638Z,75413.66
2023-05-11T18:08:16.069Z,75421.78
2023-05-11T18:10:45.669Z,75425.88
2023-05-11T18:13:14.244Z,75432.00
2023-05-11T18:15:43.881Z,75442.19
2023-05-11T18:18:11.687Z,75446.25
2023-05-11T18:20:39.444Z,75444.22
2023-05-11T18:23:07.162Z,75448.28
2023-05-11T18:25:34.988Z,75446.25
2023-05-11T18:28:04.345Z,75458.50
2023-05-11T18:30:34.612Z,75462.56
2023-05-11T18:33:02.558Z,75466.63
2023-05-11T18:35:30.725Z,75466.63
2023-05-11T18:37:59.528Z,75466.63
2023-05-11T18:40:27.440Z,75470.72
2023-05-11T18:42:56.104Z,75470.72
2023-05-11T18:45:25.260Z,75470.72
2023-05-11T18:47:53.062Z,75478.88
2023-05-11T18:50:21.699Z,75482.94
2023-05-11T18:52:49.593Z,75487.03
2023-05-11T18:55:17.758Z,75482.94
2023-05-11T18:57:46.035Z,75491.09
2023-05-11T19:00:14.599Z,75499.25
2023-05-11T19:02:43.906Z,75503.34
2023-05-11T19:05:11.989Z,75509.44
2023-05-11T19:07:40.998Z,75511.47
2023-05-11T19:10:09.878Z,75511.47
2023-05-11T19:12:38.194Z,75515.56
2023-05-11T19:15:08.372Z,75519.63
2023-05-11T19:17:36.230Z,75519.63
2023-05-11T19:20:06.480Z,75521.69
2023-05-11T19:22:34.237Z,75531.88
2023-05-11T19:25:02.156Z,75535.94
2023-05-11T19:27:29.895Z,75537.97
2023-05-11T19:29:57.654Z,75540.03
2023-05-11T19:32:25.640Z,75540.03
2023-05-11T19:34:53.478Z,75535.94
2023-05-11T19:37:22.815Z,75535.94
2023-05-11T19:39:51.013Z,75540.03
2023-05-11T19:42:25.822Z,75546.13
2023-05-11T19:44:59.837Z,75552.25
2023-05-11T19:47:28.520Z,75546.13
2023-05-11T19:49:56.276Z,75552.25
2023-05-11T19:52:25.530Z,75552.25
2023-05-11T19:54:53.279Z,75552.25
2023-05-11T19:57:21.252Z,75554.28
2023-05-11T19:59:49.052Z,75556.34
2023-05-11T20:02:16.804Z,75564.47
2023-05-11T20:04:46.490Z,75568.56
2023-05-11T20:07:14.328Z,75580.78
2023-05-11T20:09:43.414Z,75580.78
2023-05-11T20:12:11.196Z,75588.94
2023-05-11T20:14:40.931Z,75593.03
2023-05-11T20:17:09.431Z,75601.19
2023-05-11T20:19:37.729Z,75601.19
2023-05-11T20:22:06.010Z,75601.19
2023-05-11T20:24:33.760Z,75607.28
2023-05-11T20:27:09.034Z,75603.22
2023-05-11T20:29:39.021Z,75603.22
2023-05-11T20:32:07.573Z,75615.44
2023-05-11T20:34:35.571Z,75617.50
2023-05-11T20:37:03.693Z,75625.63
2023-05-11T20:39:31.500Z,75623.59
2023-05-11T20:42:00.451Z,75621.56
2023-05-11T20:44:30.089Z,75625.63
2023-05-11T20:46:57.823Z,75625.63
2023-05-11T20:49:37.642Z,75629.72
2023-05-11T20:52:07.572Z,75629.72
2023-05-11T20:54:35.903Z,75633.78
2023-05-11T20:57:05.021Z,75629.72
2023-05-11T21:02:05.055Z,75635.84
2023-05-11T21:04:33.757Z,75633.78
2023-05-11T21:07:01.490Z,75633.78
2023-05-11T21:09:29.205Z,75635.84
2023-05-11T21:11:57.049Z,75637.88
2023-05-11T21:14:24.791Z,75641.94
2023-05-11T21:16:53.971Z,75644.00
2023-05-11T21:19:21.857Z,75641.94
2023-05-11T21:21:49.749Z,75633.78
2023-05-11T21:24:17.748Z,75641.94
2023-05-11T21:26:48.022Z,75637.88
2023-05-11T21:29:16.050Z,75637.88
2023-05-11T21:31:43.795Z,75633.78
2023-05-11T21:34:12.989Z,75637.88
2023-05-11T21:36:41.476Z,75633.78
2023-05-11T21:39:09.277Z,75633.78
2023-05-11T21:41:37.710Z,75635.84
2023-05-11T21:44:05.901Z,75637.88
2023-05-11T21:46:33.691Z,75639.91
2023-05-11T21:49:01.543Z,75641.94
2023-05-11T21:51:30.675Z,75644.00
2023-05-11T21:53:58.399Z,75639.91
2023-05-11T21:56:26.330Z,75646.03
2023-05-11T21:58:54.046Z,75641.94
2023-05-11T22:01:22.581Z,75641.94
2023-05-11T22:03:50.522Z,75641.94
2023-05-11T22:06:18.330Z,75644.00
2023-05-11T22:08:47.425Z,75641.94
2023-05-11T22:11:15.235Z,75650.09
2023-05-11T22:13:43.006Z,75646.03
2023-05-11T22:16:10.843Z,75650.09
2023-05-11T22:18:38.679Z,75654.19
2023-05-11T22:21:06.579Z,75650.09
2023-05-11T22:23:35.413Z,75654.19
2023-05-11T22:26:04.687Z,75654.19
2023-05-11T22:28:32.856Z,75650.09
2023-05-11T22:31:00.693Z,75648.06
2023-05-11T22:33:28.538Z,75654.19
2023-05-11T22:35:56.258Z,75650.09
2023-05-11T22:38:24.005Z,75650.09
2023-05-11T22:40:51.792Z,75650.09
2023-05-11T22:43:21.237Z,75641.94
2023-05-11T22:45:49.422Z,75646.03
2023-05-11T22:48:17.426Z,75646.03
2023-05-11T22:50:47.429Z,75652.13
2023-05-11T22:53:15.564Z,75650.09
2023-05-11T22:55:43.444Z,75646.03
2023-05-11T22:58:11.469Z,75646.03
2023-05-11T23:00:40.608Z,75646.03
2023-05-11T23:03:08.778Z,75654.19
2023-05-11T23:05:37.199Z,75650.09
2023-05-11T23:08:04.969Z,75648.06
2023-05-11T23:10:33.128Z,75654.19
2023-05-11T23:13:00.834Z,75646.03
2023-05-11T23:15:28.685Z,75648.06
2023-05-11T23:17:57.911Z,75650.09
2023-05-11T23:20:26.167Z,75646.03
2023-05-11T23:22:53.952Z,75644.00
2023-05-11T23:25:21.742Z,75646.03
2023-05-11T23:27:49.468Z,75646.03
2023-05-11T23:30:17.877Z,75641.94
2023-05-11T23:32:46.040Z,75650.09
2023-05-11T23:35:15.570Z,75650.09
2023-05-11T23:37:43.293Z,75650.09
2023-05-11T23:40:11.666Z,75654.19
2023-05-11T23:42:39.421Z,75652.13
2023-05-11T23:45:08.745Z,75648.06
2023-05-11T23:47:37.376Z,75656.22
2023-05-11T23:50:05.675Z,75650.09
2023-05-11T23:52:34.766Z,75658.25
2023-05-11T23:55:02.597Z,75658.25
2023-05-11T23:57:30.319Z,75660.28
2023-05-11T23:59:58.360Z,75666.41
